Time;durP1;ratioP1;P1;durP2;ratioP2;P2;SDS_P1;SDS_P2;PMS_P1;PMS_P2;Temp;Humidity;BMP_temperature;BMP_pressure;BME280_temperature;BME280_humidity;BME280_pressure;Samples;Min_cycle;Max_cycle;Signal;HPM_P1;HPM_P2
2021/12/17 00:04:50;;;;;;;129.02;24.02;;;9.70;94.20;;;;;;5067414;28;20062;-85
2021/12/17 00:07:16;;;;;;;124.07;21.80;;;9.70;94.20;;;;;;5043665;28;20080;-85
2021/12/17 00:09:44;;;;;;;115.53;21.70;;;9.70;94.50;;;;;;5046163;28;20138;-85
2021/12/17 00:12:12;;;;;;;114.40;20.40;;;9.60;94.30;;;;;;5051898;28;20053;-85
2021/12/17 00:14:40;;;;;;;134.32;22.10;;;9.60;94.20;;;;;;5048714;28;20068;-85
2021/12/17 00:17:11;;;;;;;126.78;22.25;;;9.60;94.20;;;;;;5055106;28;20131;-85
2021/12/17 00:48:22;;;;;;;109.47;20.58;;;9.70;94.20;;;;;;5064816;28;20592;-85
2021/12/17 00:53:03;;;;;;;95.60;16.48;;;9.60;94.30;;;;;;5027578;28;20142;-85
2021/12/17 00:55:28;;;;;;;92.68;16.38;;;9.60;94.10;;;;;;5053633;28;20044;-85
2021/12/17 00:57:54;;;;;;;95.03;15.27;;;9.60;94.10;;;;;;5036608;28;20165;-86
2021/12/17 01:00:22;;;;;;;112.85;17.30;;;9.60;94.10;;;;;;5034227;28;20075;-85
2021/12/17 01:02:50;;;;;;;101.13;17.88;;;9.60;94.20;;;;;;5048352;28;20092;-85
2021/12/17 01:05:28;;;;;;;108.32;18.13;;;9.60;94.10;;;;;;5036540;28;20070;-85
2021/12/17 01:07:57;;;;;;;107.53;17.92;;;9.60;94.10;;;;;;5052063;28;20392;-86
2021/12/17 01:10:32;;;;;;;105.63;17.55;;;9.50;94.10;;;;;;5051588;28;20072;-86
2021/12/17 01:12:58;;;;;;;111.53;17.13;;;9.50;94.20;;;;;;5051937;28;20046;-86
2021/12/17 01:15:24;;;;;;;116.93;17.73;;;9.50;94.20;;;;;;5032129;28;20579;-86
2021/12/17 01:17:55;;;;;;;114.28;19.83;;;9.50;94.20;;;;;;5052835;28;20056;-86
2021/12/17 01:20:34;;;;;;;118.80;18.88;;;9.50;94.20;;;;;;5034527;28;20077;-86
2021/12/17 01:23:30;;;;;;;118.05;18.02;;;9.50;94.20;;;;;;5052869;28;20409;-85
2021/12/17 01:36:40;;;;;;;106.78;18.48;;;9.40;94.30;;;;;;5047961;28;20618;-85
2021/12/17 01:44:12;;;;;;;113.43;18.15;;;9.50;94.40;;;;;;5063057;28;20423;-85
2021/12/17 01:46:39;;;;;;;118.22;19.50;;;9.40;94.30;;;;;;5034503;28;20051;-85
2021/12/17 02:00:01;;;;;;;112.95;19.65;;;9.40;94.30;;;;;;5051611;28;20075;-85
2021/12/17 02:02:29;;;;;;;111.65;19.98;;;9.40;94.30;;;;;;5051339;28;20229;-85
2021/12/17 02:04:54;;;;;;;96.50;18.70;;;9.40;94.30;;;;;;5050034;28;20338;-85
2021/12/17 02:07:20;;;;;;;97.07;17.48;;;9.40;94.30;;;;;;5048863;28;20052;-86
2021/12/17 02:31:26;;;;;;;83.25;18.60;;;9.40;94.30;;;;;;5051585;28;20082;-86
2021/12/17 02:33:54;;;;;;;96.85;18.55;;;9.40;94.30;;;;;;5017183;28;20060;-85
2021/12/17 02:36:24;;;;;;;83.03;16.92;;;9.40;94.30;;;;;;5050540;28;20091;-85
2021/12/17 02:38:53;;;;;;;95.90;17.42;;;9.40;94.30;;;;;;5018077;28;20073;-85
2021/12/17 02:46:47;;;;;;;74.88;14.50;;;9.40;94.30;;;;;;5053054;28;20462;-85
2021/12/17 02:49:13;;;;;;;67.72;14.07;;;9.40;94.30;;;;;;5043699;28;20043;-84
2021/12/17 02:51:39;;;;;;;77.18;14.15;;;9.40;94.30;;;;;;5048077;28;20061;-85
2021/12/17 02:54:06;;;;;;;83.15;14.20;;;9.40;94.30;;;;;;5049177;28;20054;-85
2021/12/17 02:56:31;;;;;;;71.07;12.88;;;9.40;94.30;;;;;;5034291;28;20049;-85
2021/12/17 02:58:57;;;;;;;83.40;14.52;;;9.40;94.30;;;;;;5050053;28;20055;-85
2021/12/17 03:01:24;;;;;;;69.05;14.60;;;9.40;94.30;;;;;;5050936;28;20138;-85
2021/12/17 03:03:52;;;;;;;78.50;15.00;;;9.50;94.30;;;;;;5041755;28;20482;-85
2021/12/17 03:06:19;;;;;;;76.50;14.50;;;9.50;94.30;;;;;;5012961;28;20047;-85
2021/12/17 03:08:47;;;;;;;77.03;14.80;;;9.50;94.30;;;;;;5015378;28;20464;-86
2021/12/17 03:11:13;;;;;;;69.82;13.90;;;9.50;94.20;;;;;;5030669;28;20062;-86
2021/12/17 03:13:39;;;;;;;80.32;15.43;;;9.50;94.20;;;;;;5027511;28;20060;-85
2021/12/17 03:16:09;;;;;;;72.65;13.95;;;9.50;94.20;;;;;;5027513;28;20074;-85
2021/12/17 03:24:04;;;;;;;70.65;14.77;;;9.50;94.20;;;;;;5035572;28;20063;-85
2021/12/17 03:26:30;;;;;;;65.97;14.38;;;9.50;94.20;;;;;;5030355;28;20060;-85
2021/12/17 03:28:59;;;;;;;70.82;14.57;;;9.50;94.20;;;;;;5032863;28;20502;-85
2021/12/17 03:31:26;;;;;;;71.47;13.82;;;9.50;94.20;;;;;;5030044;28;20083;-85
2021/12/17 03:33:57;;;;;;;76.15;15.15;;;9.60;94.20;;;;;;5025491;28;20116;-85
2021/12/17 03:36:22;;;;;;;70.70;13.98;;;9.50;94.20;;;;;;5011150;28;20088;-85
2021/12/17 03:38:50;;;;;;;76.30;13.90;;;9.60;94.20;;;;;;5027636;28;20115;-85
2021/12/17 03:43:44;;;;;;;72.22;13.82;;;9.60;94.20;;;;;;5047116;28;20061;-85
2021/12/17 03:46:09;;;;;;;70.65;13.52;;;9.60;94.20;;;;;;5030453;28;20419;-85
2021/12/17 03:48:38;;;;;;;75.80;13.80;;;9.60;94.20;;;;;;5033527;28;20059;-85
2021/12/17 03:51:05;;;;;;;71.10;14.48;;;9.50;94.10;;;;;;5019552;28;20101;-85
2021/12/17 03:53:31;;;;;;;71.85;13.45;;;9.50;94.10;;;;;;5045682;28;20530;-85
2021/12/17 03:55:57;;;;;;;70.15;15.38;;;9.50;94.20;;;;;;5030609;28;20047;-85
2021/12/17 03:58:23;;;;;;;71.32;13.50;;;9.50;94.10;;;;;;5028755;28;20536;-85
2021/12/17 04:00:49;;;;;;;71.43;12.80;;;9.50;94.10;;;;;;5032021;28;20693;-85
2021/12/17 04:03:15;;;;;;;65.03;14.77;;;9.50;94.10;;;;;;5043383;28;20084;-85
2021/12/17 04:05:41;;;;;;;80.32;14.77;;;9.60;94.20;;;;;;5034085;28;20050;-85
2021/12/17 04:08:07;;;;;;;72.22;13.75;;;9.50;94.10;;;;;;5035898;28;20065;-86
2021/12/17 04:10:41;;;;;;;71.35;14.50;;;9.60;94.20;;;;;;5021543;28;20151;-86
2021/12/17 04:13:27;;;;;;;66.63;13.75;;;9.60;94.10;;;;;;5034812;28;20099;-86
2021/12/17 04:16:05;;;;;;;87.75;16.15;;;9.50;94.10;;;;;;5035215;28;20076;-85
2021/12/17 04:18:32;;;;;;;64.53;14.45;;;9.60;94.20;;;;;;5034061;28;20053;-85
2021/12/17 04:21:03;;;;;;;70.28;13.73;;;9.50;94.10;;;;;;5032916;28;20090;-85
2021/12/17 04:23:31;;;;;;;64.43;13.07;;;9.50;94.10;;;;;;5051919;28;20136;-85
2021/12/17 04:25:57;;;;;;;64.80;13.70;;;9.50;94.10;;;;;;5035989;28;20057;-84
2021/12/17 04:28:23;;;;;;;72.47;13.55;;;9.50;94.10;;;;;;5014673;28;20053;-85
2021/12/17 04:30:49;;;;;;;68.65;13.52;;;9.60;94.20;;;;;;5030504;28;20068;-85
2021/12/17 04:33:15;;;;;;;70.63;13.05;;;9.50;94.10;;;;;;5050216;28;20844;-85
2021/12/17 04:35:41;;;;;;;72.65;13.63;;;9.60;94.20;;;;;;5048575;28;20063;-84
2021/12/17 04:38:11;;;;;;;67.97;13.15;;;9.50;94.10;;;;;;5033174;28;20049;-85
2021/12/17 04:40:41;;;;;;;77.60;14.57;;;9.60;94.10;;;;;;5017918;28;20083;-85
2021/12/17 04:43:51;;;;;;;61.42;13.18;;;9.60;94.10;;;;;;5030637;28;20053;-85
2021/12/17 04:46:14;;;;;;;69.85;13.35;;;9.50;94.10;;;;;;5040895;28;20048;-85
2021/12/17 04:59:37;;;;;;;60.75;12.50;;;9.60;94.10;;;;;;5022151;28;20081;-85
2021/12/17 05:02:03;;;;;;;65.45;12.70;;;9.50;94.50;;;;;;5019300;28;20084;-85
2021/12/17 05:04:29;;;;;;;60.05;11.80;;;9.60;94.10;;;;;;5034358;28;20053;-85
2021/12/17 05:06:55;;;;;;;61.63;11.93;;;9.60;94.10;;;;;;5036113;28;20048;-85
2021/12/17 05:09:30;;;;;;;67.65;12.82;;;9.60;94.20;;;;;;5037189;28;20113;-85
2021/12/17 05:19:58;;;;;;;55.83;12.73;;;9.60;94.10;;;;;;5051187;28;20089;-85
2021/12/17 05:22:26;;;;;;;52.28;12.20;;;9.60;94.10;;;;;;5047549;28;20048;-85
2021/12/17 05:24:52;;;;;;;70.25;13.93;;;9.50;94.10;;;;;;5049954;28;20075;-85
2021/12/17 05:27:18;;;;;;;56.97;12.35;;;9.60;94.20;;;;;;5051383;28;20079;-85
2021/12/17 05:29:45;;;;;;;50.70;13.10;;;9.60;94.10;;;;;;5019204;28;20060;-84
2021/12/17 05:32:11;;;;;;;64.22;12.40;;;9.50;94.10;;;;;;5066751;28;20047;-85
2021/12/17 05:34:36;;;;;;;65.57;13.48;;;9.60;94.10;;;;;;5031993;28;20093;-85
2021/12/17 05:37:02;;;;;;;63.03;12.32;;;9.60;94.20;;;;;;5029252;28;20052;-85
2021/12/17 05:39:28;;;;;;;60.72;12.82;;;9.60;94.20;;;;;;5034820;28;20065;-85
2021/12/17 05:41:54;;;;;;;57.97;14.20;;;9.60;94.10;;;;;;5048050;28;20052;-85
2021/12/17 05:44:20;;;;;;;67.63;13.25;;;9.60;94.10;;;;;;5050449;28;20032;-85
2021/12/17 05:46:49;;;;;;;64.57;13.77;;;9.60;94.10;;;;;;5052047;28;20132;-85
2021/12/17 05:49:20;;;;;;;69.38;13.20;;;9.60;94.10;;;;;;5043428;28;20045;-84
2021/12/17 05:51:46;;;;;;;74.45;15.88;;;9.60;94.10;;;;;;5030064;28;20060;-85
2021/12/17 05:54:12;;;;;;;81.80;15.43;;;9.60;94.10;;;;;;5038062;28;20068;-85
2021/12/17 05:56:39;;;;;;;82.97;16.10;;;9.60;94.10;;;;;;5032843;28;20149;-86
2021/12/17 05:59:06;;;;;;;69.28;13.75;;;9.60;94.10;;;;;;5032926;28;20060;-85
2021/12/17 06:01:31;;;;;;;90.10;15.75;;;9.50;94.00;;;;;;5049293;28;20447;-85
2021/12/17 06:03:57;;;;;;;85.72;16.02;;;9.50;94.00;;;;;;5048584;28;20080;-85
2021/12/17 06:06:30;;;;;;;89.70;15.15;;;9.50;94.00;;;;;;5037972;28;20521;-87
2021/12/17 06:08:56;;;;;;;82.05;15.07;;;9.50;94.10;;;;;;5053662;28;20059;-87
2021/12/17 06:11:22;;;;;;;95.00;16.52;;;9.50;94.10;;;;;;5052890;28;20496;-87
2021/12/17 06:13:48;;;;;;;74.22;16.27;;;9.50;94.10;;;;;;5047229;28;20457;-85
2021/12/17 06:16:14;;;;;;;100.80;16.58;;;9.50;94.10;;;;;;5044240;28;20053;-84
2021/12/17 06:18:39;;;;;;;105.10;15.98;;;9.50;94.10;;;;;;5043050;28;20512;-84
2021/12/17 06:21:05;;;;;;;106.40;15.98;;;9.50;94.10;;;;;;5029845;28;20142;-85
2021/12/17 06:23:31;;;;;;;89.25;15.48;;;9.40;94.10;;;;;;5052818;28;20099;-89
2021/12/17 06:25:56;;;;;;;95.93;16.30;;;9.40;94.00;;;;;;5059521;28;20066;-88
2021/12/17 06:28:22;;;;;;;99.75;15.95;;;9.40;94.10;;;;;;5050689;28;20083;-89
2021/12/17 06:30:48;;;;;;;98.45;17.05;;;9.40;94.10;;;;;;5036464;28;20069;-90
2021/12/17 06:33:14;;;;;;;94.20;17.30;;;9.40;94.10;;;;;;5053644;28;20103;-90
2021/12/17 06:35:40;;;;;;;101.07;17.55;;;9.40;94.10;;;;;;5053589;28;20057;-90
2021/12/17 06:38:06;;;;;;;113.60;18.27;;;9.40;94.10;;;;;;5051903;28;20044;-85
2021/12/17 06:40:32;;;;;;;118.20;16.52;;;9.40;94.10;;;;;;5053632;28;20203;-86
2021/12/17 06:42:58;;;;;;;111.40;17.13;;;9.40;94.10;;;;;;5055426;28;20101;-86
2021/12/17 06:45:40;;;;;;;112.20;17.73;;;9.40;94.10;;;;;;5032880;28;20124;-84
2021/12/17 06:48:06;;;;;;;107.22;18.00;;;9.40;94.10;;;;;;5039426;28;20593;-83
2021/12/17 07:01:17;;;;;;;124.65;18.65;;;9.40;94.10;;;;;;5054529;28;20118;-84
2021/12/17 07:17:21;;;;;;;120.28;19.90;;;9.30;94.10;;;;;;5035385;28;20148;-85
2021/12/17 07:22:47;;;;;;;113.70;19.33;;;9.30;94.10;;;;;;5043669;28;20057;-86
2021/12/17 07:33:20;;;;;;;111.30;19.25;;;9.30;94.10;;;;;;5047985;28;20578;-85
2021/12/17 07:40:56;;;;;;;130.60;18.35;;;9.30;94.20;;;;;;5048977;28;20179;-87
2021/12/17 07:43:59;;;;;;;97.20;16.85;;;9.30;94.10;;;;;;5035371;28;20494;-84
2021/12/17 07:46:14;;;;;;;101.97;18.02;;;9.20;94.10;;;;;;5047980;28;20339;-87
2021/12/17 07:48:40;;;;;;;102.80;18.63;;;9.30;94.20;;;;;;5040475;28;20053;-87
2021/12/17 07:51:10;;;;;;;101.70;16.67;;;9.30;94.20;;;;;;5031343;28;20037;-83
2021/12/17 07:53:36;;;;;;;110.93;18.30;;;9.30;94.20;;;;;;5036446;28;20051;-83
2021/12/17 07:56:05;;;;;;;90.20;17.35;;;9.30;94.20;;;;;;5034123;28;20041;-83
2021/12/17 07:58:32;;;;;;;99.35;16.98;;;9.30;94.20;;;;;;5033223;28;20448;-84
2021/12/17 08:00:58;;;;;;;100.30;17.50;;;9.30;94.20;;;;;;5032389;28;20520;-80
2021/12/17 08:03:25;;;;;;;101.13;17.83;;;9.30;94.20;;;;;;5036193;28;20130;-81
2021/12/17 08:05:52;;;;;;;95.47;17.73;;;9.30;94.20;;;;;;5016048;28;20090;-81
2021/12/17 08:08:18;;;;;;;99.32;18.17;;;9.40;94.20;;;;;;5043362;28;20182;-81
2021/12/17 08:10:47;;;;;;;92.45;17.00;;;9.40;94.20;;;;;;5048618;28;20072;-81
2021/12/17 08:13:19;;;;;;;102.07;18.00;;;9.40;94.20;;;;;;5045284;28;20147;-82
2021/12/17 08:15:58;;;;;;;101.53;18.13;;;9.40;94.20;;;;;;5048119;28;20476;-81
2021/12/17 08:24:16;;;;;;;92.80;17.65;;;9.40;94.20;;;;;;5068366;28;20059;-83
2021/12/17 08:31:29;;;;;;;88.65;16.98;;;9.40;94.20;;;;;;5067641;28;20080;-84
2021/12/17 08:33:55;;;;;;;94.47;18.02;;;9.40;94.20;;;;;;5039235;28;20055;-83
2021/12/17 08:36:22;;;;;;;92.05;17.13;;;9.50;94.20;;;;;;5054193;28;20098;-83
2021/12/17 08:38:51;;;;;;;85.70;18.05;;;9.40;94.10;;;;;;5070505;28;20054;-83
2021/12/17 08:41:18;;;;;;;97.40;18.35;;;9.40;94.10;;;;;;5066565;28;20103;-84
2021/12/17 08:43:44;;;;;;;83.32;15.55;;;9.50;94.20;;;;;;5036294;28;20059;-84
2021/12/17 08:46:10;;;;;;;89.03;16.92;;;9.50;94.20;;;;;;5057946;28;20093;-83
2021/12/17 08:48:36;;;;;;;79.43;17.92;;;9.50;94.10;;;;;;5053475;28;20050;-83
2021/12/17 08:51:02;;;;;;;87.35;17.27;;;9.50;94.10;;;;;;5075042;28;20051;-82
2021/12/17 08:53:28;;;;;;;89.20;17.10;;;9.50;94.20;;;;;;5045315;28;20103;-83
2021/12/17 08:55:54;;;;;;;88.72;16.25;;;9.50;94.10;;;;;;5044133;28;20059;-83
2021/12/17 08:58:20;;;;;;;84.55;15.75;;;9.50;94.20;;;;;;5064848;28;20108;-82
2021/12/17 09:00:47;;;;;;;82.38;16.25;;;9.50;94.20;;;;;;5054271;28;20059;-82
2021/12/17 09:03:13;;;;;;;87.82;16.17;;;9.50;94.10;;;;;;5067912;28;20083;-84
2021/12/17 09:05:42;;;;;;;82.25;16.88;;;9.50;94.20;;;;;;5046598;28;20136;-80
2021/12/17 09:08:09;;;;;;;73.93;16.55;;;9.60;94.20;;;;;;5054105;28;20503;-83
2021/12/17 09:10:36;;;;;;;82.07;16.77;;;9.60;94.20;;;;;;5070768;28;20081;-82
2021/12/17 09:13:02;;;;;;;79.15;17.75;;;9.60;94.10;;;;;;5049027;28;20055;-85
2021/12/17 09:15:28;;;;;;;78.82;16.00;;;9.60;94.10;;;;;;5038634;28;20495;-81
2021/12/17 09:17:54;;;;;;;79.65;17.17;;;9.60;94.10;;;;;;5050303;28;20059;-80
2021/12/17 09:20:20;;;;;;;77.20;16.90;;;9.60;94.10;;;;;;5053729;28;20089;-82
2021/12/17 09:22:45;;;;;;;81.85;17.60;;;9.60;94.10;;;;;;5034068;28;20053;-81
2021/12/17 09:25:11;;;;;;;82.60;15.95;;;9.60;94.10;;;;;;5053444;28;20045;-81
2021/12/17 09:27:38;;;;;;;86.03;16.65;;;9.60;94.10;;;;;;5052193;28;20058;-81
2021/12/17 09:30:07;;;;;;;77.40;15.38;;;9.60;94.10;;;;;;5037220;28;20055;-82
2021/12/17 09:32:33;;;;;;;73.57;16.38;;;9.70;94.10;;;;;;5047961;28;20051;-81
2021/12/17 09:34:59;;;;;;;74.70;17.77;;;9.60;94.10;;;;;;5037251;28;20512;-81
2021/12/17 09:37:24;;;;;;;71.32;15.52;;;9.70;94.10;;;;;;5051952;28;20104;-81
2021/12/17 09:39:50;;;;;;;68.82;16.55;;;9.70;94.10;;;;;;5029042;28;20082;-81
2021/12/17 09:42:16;;;;;;;82.88;17.02;;;9.70;94.10;;;;;;5026925;28;20057;-81
2021/12/17 09:44:42;;;;;;;80.65;17.17;;;9.70;94.50;;;;;;5053012;28;20411;-81
2021/12/17 09:47:08;;;;;;;70.72;18.05;;;9.70;94.10;;;;;;5070474;28;20071;-81
2021/12/17 09:49:34;;;;;;;78.10;16.60;;;9.70;94.50;;;;;;5069075;28;20088;-81
2021/12/17 09:52:00;;;;;;;74.70;17.13;;;9.80;94.10;;;;;;5054446;28;20087;-81
2021/12/17 09:54:27;;;;;;;80.35;16.95;;;9.80;94.10;;;;;;5038185;28;20463;-81
2021/12/17 09:56:53;;;;;;;77.40;16.85;;;9.80;94.10;;;;;;5036789;28;20580;-81
2021/12/17 09:59:19;;;;;;;67.03;15.63;;;9.80;94.10;;;;;;5046232;28;20064;-81
2021/12/17 10:01:45;;;;;;;72.35;17.38;;;9.80;94.00;;;;;;5032197;28;20073;-81
2021/12/17 10:04:29;;;;;;;73.80;18.08;;;9.80;94.10;;;;;;5070745;28;20049;-81
2021/12/17 10:07:17;;;;;;;67.97;16.05;;;9.80;94.10;;;;;;5044281;28;20081;-81
2021/12/17 10:09:51;;;;;;;67.53;16.25;;;9.80;94.00;;;;;;5049052;28;20063;-82
2021/12/17 10:12:25;;;;;;;60.55;15.27;;;9.80;94.00;;;;;;5057123;28;20089;-78
2021/12/17 10:15:05;;;;;;;63.05;16.52;;;9.80;94.00;;;;;;5045912;28;20054;-81
2021/12/17 10:17:31;;;;;;;82.60;16.85;;;9.80;94.00;;;;;;5061326;28;20054;-80
2021/12/17 10:19:57;;;;;;;74.10;16.40;;;9.90;94.00;;;;;;5046512;28;20070;-81
2021/12/17 10:22:24;;;;;;;74.75;17.63;;;9.90;94.00;;;;;;5048009;28;20403;-81
2021/12/17 10:25:03;;;;;;;67.45;16.13;;;9.90;94.00;;;;;;5046664;28;20043;-82
2021/12/17 10:27:34;;;;;;;69.60;16.67;;;9.90;94.10;;;;;;5063792;28;20052;-84
2021/12/17 10:30:11;;;;;;;65.50;16.20;;;9.90;94.10;;;;;;5070369;28;20055;-81
2021/12/17 10:32:39;;;;;;;67.43;17.45;;;10.00;94.10;;;;;;5071482;28;20056;-81
2021/12/17 10:35:13;;;;;;;60.10;15.52;;;10.00;94.10;;;;;;5050833;28;20119;-83
2021/12/17 10:37:42;;;;;;;52.85;15.98;;;10.10;94.10;;;;;;5045992;28;20051;-80
2021/12/17 10:40:17;;;;;;;62.42;16.88;;;10.10;94.00;;;;;;5048737;28;20547;-80
2021/12/17 10:42:51;;;;;;;73.15;17.85;;;10.00;93.90;;;;;;5048389;28;20049;-81
2021/12/17 10:45:26;;;;;;;63.63;16.33;;;10.10;93.90;;;;;;5018340;28;20457;-81
2021/12/17 10:48:12;;;;;;;63.88;16.88;;;10.00;93.90;;;;;;5033640;28;20059;-81
2021/12/17 10:50:39;;;;;;;69.57;16.70;;;10.00;93.90;;;;;;5046843;28;20128;-80
2021/12/17 10:53:07;;;;;;;68.78;16.77;;;10.10;93.90;;;;;;5045402;28;20092;-80
2021/12/17 10:55:33;;;;;;;63.97;16.65;;;10.10;93.90;;;;;;5065460;28;20043;-81
2021/12/17 10:58:02;;;;;;;61.42;17.02;;;10.10;93.90;;;;;;5048976;28;20418;-81
2021/12/17 11:00:27;;;;;;;59.95;15.85;;;10.10;93.90;;;;;;5058872;28;20073;-80
2021/12/17 11:02:54;;;;;;;61.65;16.27;;;10.10;93.90;;;;;;5028188;28;20438;-80
2021/12/17 11:05:21;;;;;;;66.68;15.73;;;10.10;94.20;;;;;;5046362;28;20063;-80
2021/12/17 11:07:48;;;;;;;56.10;15.70;;;10.10;93.90;;;;;;5041570;28;20053;-80
2021/12/17 11:10:16;;;;;;;61.50;16.85;;;10.10;93.90;;;;;;5033389;28;20519;-79
2021/12/17 11:12:44;;;;;;;60.75;16.92;;;10.10;93.90;;;;;;5032652;28;20067;-79
2021/12/17 11:15:18;;;;;;;62.75;18.02;;;10.10;93.90;;;;;;5047855;28;20072;-80
2021/12/17 11:17:50;;;;;;;58.25;16.13;;;10.20;93.90;;;;;;5065452;28;20475;-79
2021/12/17 11:20:18;;;;;;;62.08;18.00;;;10.20;93.90;;;;;;5047327;28;20082;-79
2021/12/17 11:22:45;;;;;;;60.97;16.77;;;10.20;94.00;;;;;;5066381;28;20124;-79
2021/12/17 11:25:12;;;;;;;60.42;16.10;;;10.30;94.00;;;;;;5063988;28;20499;-80
2021/12/17 11:27:38;;;;;;;62.30;17.20;;;10.30;94.00;;;;;;5046255;28;20055;-80
2021/12/17 11:30:13;;;;;;;55.40;15.95;;;10.30;93.90;;;;;;5065277;28;20065;-78
2021/12/17 11:32:43;;;;;;;58.75;17.50;;;10.40;93.90;;;;;;5060996;28;20054;-80
2021/12/17 11:35:09;;;;;;;59.22;16.52;;;10.40;93.90;;;;;;5067758;28;20058;-80
2021/12/17 11:37:35;;;;;;;64.80;16.55;;;10.40;93.90;;;;;;5042938;28;20062;-80
2021/12/17 11:40:09;;;;;;;58.83;17.27;;;10.40;93.90;;;;;;5030540;28;20066;-80
2021/12/17 11:43:01;;;;;;;59.65;17.42;;;10.40;93.90;;;;;;5066124;28;20039;-80
2021/12/17 11:45:29;;;;;;;54.50;16.13;;;10.50;93.90;;;;;;5046396;28;20525;-80
2021/12/17 11:48:13;;;;;;;56.97;16.40;;;10.50;93.90;;;;;;5057056;28;20048;-80
2021/12/17 11:50:39;;;;;;;53.20;15.57;;;10.50;93.90;;;;;;5050895;28;20051;-80
2021/12/17 11:53:19;;;;;;;52.35;16.40;;;10.50;93.90;;;;;;5045930;28;20055;-80
2021/12/17 11:55:47;;;;;;;47.88;14.70;;;10.60;93.90;;;;;;5047830;28;20055;-80
2021/12/17 11:58:15;;;;;;;55.55;16.17;;;10.60;93.90;;;;;;5064057;28;20050;-80
2021/12/17 12:00:41;;;;;;;54.33;16.88;;;10.60;93.90;;;;;;5031579;28;20078;-80
2021/12/17 12:03:24;;;;;;;56.95;16.88;;;10.60;93.80;;;;;;5067830;28;20091;-80
2021/12/17 12:05:59;;;;;;;56.83;16.02;;;10.60;93.90;;;;;;5057120;28;20057;-81
2021/12/17 12:08:49;;;;;;;50.42;16.60;;;10.60;93.90;;;;;;5047131;28;20057;-80
2021/12/17 12:11:26;;;;;;;54.47;17.50;;;10.70;93.90;;;;;;5048329;28;20055;-81
2021/12/17 12:13:54;;;;;;;49.63;16.77;;;10.60;93.80;;;;;;5069581;28;20101;-80
2021/12/17 12:16:25;;;;;;;54.55;17.05;;;10.60;93.80;;;;;;5050311;28;20115;-81
2021/12/17 12:18:53;;;;;;;59.15;20.27;;;10.60;93.90;;;;;;5070727;28;20041;-80
2021/12/17 12:21:22;;;;;;;56.15;19.33;;;10.60;93.90;;;;;;5053919;28;20405;-80
2021/12/17 12:23:55;;;;;;;57.97;18.38;;;10.70;93.90;;;;;;5045096;28;20162;-80
2021/12/17 12:26:23;;;;;;;53.83;19.67;;;10.70;94.00;;;;;;5050444;28;20496;-80
2021/12/17 12:28:58;;;;;;;65.35;21.20;;;10.70;93.90;;;;;;5068162;28;20572;-80
2021/12/17 12:31:27;;;;;;;48.90;19.95;;;10.70;93.90;;;;;;5067167;28;20037;-80
2021/12/17 12:34:08;;;;;;;52.95;20.05;;;10.70;93.90;;;;;;5046985;28;20089;-80
2021/12/17 12:36:57;;;;;;;55.05;19.38;;;10.70;94.00;;;;;;5049765;28;20557;-80
2021/12/17 12:39:37;;;;;;;51.83;17.42;;;10.70;94.00;;;;;;5052009;28;20070;-80
2021/12/17 12:42:49;;;;;;;51.67;16.23;;;10.80;94.00;;;;;;5051746;28;20413;-80
2021/12/17 12:45:17;;;;;;;49.88;15.85;;;10.80;93.90;;;;;;4981043;28;20421;-80
2021/12/17 12:47:50;;;;;;;48.00;15.77;;;10.80;93.80;;;;;;4975391;28;20086;-80
2021/12/17 12:50:19;;;;;;;48.30;16.60;;;10.70;93.90;;;;;;5035172;28;20054;-80
2021/12/17 12:52:51;;;;;;;56.78;17.55;;;10.70;93.90;;;;;;5063277;28;20520;-80
2021/12/17 12:55:24;;;;;;;45.78;16.05;;;10.70;93.90;;;;;;5071274;28;20046;-80
2021/12/17 12:57:51;;;;;;;56.28;17.63;;;10.70;93.80;;;;;;5054076;28;20530;-80
2021/12/17 13:00:23;;;;;;;49.42;17.75;;;10.70;93.80;;;;;;5069538;28;20081;-80
2021/12/17 13:02:55;;;;;;;52.60;16.75;;;10.70;93.90;;;;;;5069800;28;20075;-81
2021/12/17 13:05:21;;;;;;;44.83;17.00;;;10.70;93.90;;;;;;5049024;28;20459;-80
2021/12/17 13:07:50;;;;;;;55.45;15.73;;;10.70;93.80;;;;;;5067378;28;20038;-81
2021/12/17 13:10:32;;;;;;;53.53;17.02;;;10.70;93.90;;;;;;5067234;28;20044;-81
2021/12/17 13:23:38;;;;;;;45.17;15.38;;;10.60;94.00;;;;;;5066950;28;20128;-80
2021/12/17 13:26:07;;;;;;;44.95;15.98;;;10.50;93.90;;;;;;5069564;28;20044;-80
2021/12/17 13:28:52;;;;;;;49.35;15.75;;;10.60;94.00;;;;;;5063032;28;20050;-80
2021/12/17 13:31:38;;;;;;;51.22;16.83;;;10.60;94.40;;;;;;5053194;28;20048;-80
2021/12/17 13:34:14;;;;;;;57.28;16.23;;;10.60;94.10;;;;;;5049489;28;20053;-81
2021/12/17 13:36:53;;;;;;;50.08;15.05;;;10.60;94.10;;;;;;5052018;28;20187;-81
2021/12/17 13:39:20;;;;;;;41.17;12.95;;;10.50;94.00;;;;;;5058362;28;20112;-78
2021/12/17 13:41:47;;;;;;;40.85;13.38;;;10.60;94.00;;;;;;5052161;28;20051;-79
2021/12/17 13:44:35;;;;;;;50.33;15.20;;;10.60;94.00;;;;;;5069308;28;20050;-79
2021/12/17 13:47:19;;;;;;;55.55;15.88;;;10.60;94.10;;;;;;5052905;28;20060;-79
2021/12/17 13:49:50;;;;;;;42.10;15.05;;;10.60;94.00;;;;;;5067644;28;20481;-79
2021/12/17 13:52:17;;;;;;;43.28;14.45;;;10.60;94.00;;;;;;5047376;28;20528;-79
2021/12/17 13:54:47;;;;;;;45.15;15.23;;;10.50;94.00;;;;;;5049668;28;20428;-79
2021/12/17 13:57:16;;;;;;;48.65;16.67;;;10.50;94.00;;;;;;5052201;28;20063;-79
2021/12/17 13:59:43;;;;;;;47.72;16.55;;;10.50;94.00;;;;;;5071374;28;20066;-79
2021/12/17 14:02:13;;;;;;;52.25;16.48;;;10.50;94.10;;;;;;5047304;28;20059;-79
2021/12/17 14:04:41;;;;;;;61.13;17.35;;;10.50;94.10;;;;;;5035373;28;20082;-81
2021/12/17 14:07:11;;;;;;;51.88;16.50;;;10.50;94.40;;;;;;5052932;28;20054;-81
2021/12/17 14:09:37;;;;;;;51.72;17.42;;;10.50;94.10;;;;;;5033031;28;20059;-80
2021/12/17 14:12:29;;;;;;;50.65;17.70;;;10.50;94.10;;;;;;5037543;28;20431;-81
2021/12/17 14:18:06;;;;;;;45.80;15.35;;;10.60;94.00;;;;;;5047309;28;19941;-81
2021/12/17 14:20:44;;;;;;;44.60;15.50;;;10.60;94.00;;;;;;5056278;28;20128;-82
2021/12/17 14:23:20;;;;;;;38.40;13.88;;;10.60;94.00;;;;;;5044571;28;20040;-80
2021/12/17 14:25:54;;;;;;;37.45;14.00;;;10.60;94.00;;;;;;5030251;28;20036;-83
2021/12/17 14:28:30;;;;;;;46.88;15.48;;;10.50;94.40;;;;;;5058002;28;20059;-82
2021/12/17 14:31:04;;;;;;;37.50;14.15;;;10.50;94.00;;;;;;5048435;28;20109;-80
2021/12/17 14:33:39;;;;;;;29.48;10.57;;;10.50;94.00;;;;;;5036012;28;20172;-81
2021/12/17 14:36:10;;;;;;;28.73;10.90;;;10.50;94.00;;;;;;5051836;28;20141;-81
2021/12/17 14:38:41;;;;;;;31.05;12.82;;;10.50;94.00;;;;;;5027790;28;20415;-80
2021/12/17 14:41:17;;;;;;;32.03;10.95;;;10.50;94.00;;;;;;5038556;28;20058;-81
2021/12/17 14:44:00;;;;;;;26.02;10.32;;;10.50;94.00;;;;;;5031435;28;20056;-83
2021/12/17 14:46:32;;;;;;;29.17;11.13;;;10.50;94.00;;;;;;5055442;28;20052;-83
2021/12/17 15:02:47;;;;;;;32.60;12.32;;;10.50;93.90;;;;;;5053414;28;20061;-83
2021/12/17 15:05:15;;;;;;;31.60;11.98;;;10.50;93.90;;;;;;5064517;28;20053;-83
2021/12/17 15:07:41;;;;;;;30.00;12.00;;;10.40;93.90;;;;;;5067828;28;20144;-83
2021/12/17 15:10:09;;;;;;;34.63;9.98;;;10.50;94.00;;;;;;5053503;28;20049;-84
2021/12/17 15:12:37;;;;;;;33.60;10.95;;;10.50;94.00;;;;;;5032766;28;20064;-84
2021/12/17 15:15:19;;;;;;;30.35;10.73;;;10.50;93.90;;;;;;5051112;28;20049;-83
2021/12/17 15:17:47;;;;;;;33.03;10.45;;;10.50;93.90;;;;;;5068371;28;20055;-86
2021/12/17 15:20:14;;;;;;;32.55;10.77;;;10.50;93.90;;;;;;5066397;28;20074;-81
2021/12/17 15:22:41;;;;;;;25.58;9.52;;;10.40;93.90;;;;;;5035385;28;20602;-83
2021/12/17 15:25:08;;;;;;;22.90;9.13;;;10.40;94.10;;;;;;5069875;28;20049;-82
2021/12/17 15:27:35;;;;;;;23.83;8.93;;;10.50;94.10;;;;;;5068326;28;20042;-82
2021/12/17 15:30:08;;;;;;;15.63;6.18;;;10.50;94.00;;;;;;5069070;28;20506;-83
2021/12/17 15:32:34;;;;;;;21.73;8.77;;;10.50;94.00;;;;;;5070673;28;20054;-80
2021/12/17 15:35:00;;;;;;;25.20;8.60;;;10.50;94.00;;;;;;5054456;28;20485;-83
2021/12/17 15:37:26;;;;;;;19.02;7.47;;;10.50;93.90;;;;;;5057735;28;20051;-78
2021/12/17 15:39:51;;;;;;;24.77;9.20;;;10.50;93.90;;;;;;5050425;28;20067;-81
2021/12/17 15:42:17;;;;;;;29.55;10.07;;;10.40;93.90;;;;;;5033828;28;20078;-80
2021/12/17 15:44:43;;;;;;;25.10;9.35;;;10.40;93.90;;;;;;5036561;28;20140;-79
2021/12/17 15:47:08;;;;;;;25.23;9.57;;;10.40;93.80;;;;;;5049599;28;20056;-78
2021/12/17 15:49:38;;;;;;;29.13;11.25;;;10.40;93.90;;;;;;5055028;28;20047;-77
2021/12/17 15:52:05;;;;;;;31.95;10.77;;;10.40;93.90;;;;;;5050556;28;20427;-78
2021/12/17 15:54:31;;;;;;;27.02;10.13;;;10.40;93.90;;;;;;5032839;28;20057;-78
2021/12/17 15:56:57;;;;;;;30.92;11.00;;;10.40;93.90;;;;;;5073410;28;20490;-80